createdAt,value
2018-12-26T00:04:45.819Z,97800.00
2018-12-26T00:09:50.200Z,97796.00
2018-12-26T00:14:52.995Z,97770.00
2018-12-26T00:20:05.320Z,97761.00
2018-12-26T00:25:08.742Z,97777.00
2018-12-26T00:30:14.563Z,97773.00
2018-12-26T00:35:17.435Z,97775.00
2018-12-26T00:40:22.080Z,97777.00
2018-12-26T00:45:24.976Z,97775.00
2018-12-26T00:50:46.306Z,97780.00
2018-12-26T00:55:49.200Z,97798.00
2018-12-26T01:00:52.718Z,97797.00
2018-12-26T01:05:57.247Z,97805.00
2018-12-26T01:11:03.133Z,97794.00
2018-12-26T01:16:06.800Z,97799.00
2018-12-26T01:21:10.727Z,97784.00
2018-12-26T01:26:19.089Z,97795.00
2018-12-26T01:31:19.535Z,97788.00
2018-12-26T01:36:31.308Z,97784.00
2018-12-26T01:41:37.447Z,97783.00
2018-12-26T01:46:44.154Z,97778.00
2018-12-26T01:51:47.682Z,97776.00
2018-12-26T01:56:53.491Z,97768.00
2018-12-26T02:01:59.331Z,97776.00
2018-12-26T02:07:03.635Z,97778.00
2018-12-26T02:12:06.816Z,97774.00
2018-12-26T02:17:11.191Z,97758.00
2018-12-26T02:22:15.893Z,97741.00
2018-12-26T02:27:19.208Z,97730.00
2018-12-26T02:32:32.763Z,97726.00
2018-12-26T02:37:35.854Z,97729.00
2018-12-26T02:42:43.188Z,97718.00
2018-12-26T02:47:45.951Z,97724.00
2018-12-26T02:52:51.717Z,97711.00
2018-12-26T02:57:54.549Z,97690.00
2018-12-26T03:02:58.252Z,97689.00
2018-12-26T03:08:01.700Z,97685.00
2018-12-26T03:13:04.755Z,97678.00
2018-12-26T03:18:08.319Z,97681.00
2018-12-26T03:23:11.184Z,97677.00
2018-12-26T03:28:16.035Z,97661.00
2018-12-26T03:33:20.794Z,97668.00
2018-12-26T03:38:24.243Z,97661.00
2018-12-26T03:43:45.507Z,97647.00
2018-12-26T03:48:49.329Z,97644.00
2018-12-26T03:53:55.338Z,97614.00
2018-12-26T03:59:16.400Z,97637.00
2018-12-26T04:04:29.729Z,97639.00
2018-12-26T04:09:35.952Z,97625.00
2018-12-26T04:14:38.976Z,97631.00
2018-12-26T04:19:43.271Z,97636.00
2018-12-26T04:24:47.962Z,97656.00
2018-12-26T04:30:09.333Z,97670.00
2018-12-26T04:35:12.280Z,97655.00
2018-12-26T04:40:37.740Z,97644.00
2018-12-26T04:45:41.311Z,97650.00
2018-12-26T04:50:44.775Z,97677.00
2018-12-26T04:55:51.243Z,97673.00
2018-12-26T05:01:24.472Z,97672.00
2018-12-26T05:06:45.399Z,97674.00
2018-12-26T05:12:07.750Z,97660.00
2018-12-26T05:17:11.084Z,97661.00
2018-12-26T05:22:16.825Z,97660.00
2018-12-26T05:27:19.671Z,97671.00
2018-12-26T05:32:25.338Z,97667.00
2018-12-26T05:37:29.614Z,97678.00
2018-12-26T05:42:32.402Z,97670.00
2018-12-26T05:47:36.313Z,97677.00
2018-12-26T05:52:39.321Z,97679.00
2018-12-26T05:57:43.249Z,97675.00
2018-12-26T06:02:46.855Z,97668.00
2018-12-26T06:07:49.631Z,97661.00
2018-12-26T06:13:01.480Z,97665.00
2018-12-26T06:18:04.458Z,97653.00
2018-12-26T06:23:07.900Z,97656.00
2018-12-26T06:28:10.830Z,97652.00
2018-12-26T06:33:14.328Z,97655.00
2018-12-26T06:38:17.189Z,97651.00
2018-12-26T06:43:21.419Z,97681.00
2018-12-26T06:48:42.851Z,97689.00
2018-12-26T06:53:46.397Z,97679.00
2018-12-26T06:58:49.917Z,97668.00
2018-12-26T07:03:53.323Z,97663.00
2018-12-26T07:08:56.908Z,97654.00
2018-12-26T07:14:00.827Z,97658.00
2018-12-26T07:19:08.344Z,97671.00
2018-12-26T07:24:11.870Z,97663.00
2018-12-26T07:29:17.761Z,97679.00
2018-12-26T07:34:23.662Z,97681.00
2018-12-26T07:39:35.419Z,97700.00
2018-12-26T07:44:38.382Z,97697.00
2018-12-26T07:49:50.349Z,97689.00
2018-12-26T07:55:02.252Z,97694.00
2018-12-26T08:00:07.267Z,97683.00
2018-12-26T08:05:11.721Z,97678.00
2018-12-26T08:10:16.406Z,97677.00
2018-12-26T08:15:20.619Z,97678.00
2018-12-26T08:20:24.348Z,97683.00
2018-12-26T08:25:27.922Z,97691.00
2018-12-26T08:30:31.948Z,97695.00
2018-12-26T08:35:36.407Z,97694.00
2018-12-26T08:40:39.854Z,97699.00
2018-12-26T08:45:42.655Z,97709.00
2018-12-26T08:50:46.397Z,97721.00
2018-12-26T08:55:49.956Z,97722.00
2018-12-26T09:00:54.516Z,97711.00
2018-12-26T09:06:01.256Z,97732.00
2018-12-26T09:11:04.831Z,97732.00
2018-12-26T09:16:07.629Z,97724.00
2018-12-26T09:21:11.869Z,97717.00
2018-12-26T09:26:14.696Z,97725.00
2018-12-26T09:31:20.451Z,97719.00
2018-12-26T09:36:41.803Z,97711.00
2018-12-26T09:41:45.490Z,97712.00
2018-12-26T09:46:49.077Z,97707.00
2018-12-26T09:51:51.931Z,97707.00
2018-12-26T09:56:54.744Z,97705.00
2018-12-26T10:01:58.716Z,97698.00
2018-12-26T10:07:02.449Z,97709.00
2018-12-26T10:12:05.904Z,97700.00
2018-12-26T10:17:08.687Z,97689.00
2018-12-26T10:22:11.571Z,97690.00
2018-12-26T10:27:14.419Z,97690.00
2018-12-26T10:32:36.606Z,97688.00
2018-12-26T10:37:43.012Z,97684.00
2018-12-26T10:42:46.415Z,97674.00
2018-12-26T10:47:53.970Z,97659.00
2018-12-26T10:53:06.551Z,97647.00
2018-12-26T10:58:10.097Z,97648.00
2018-12-26T11:03:13.331Z,97648.00
2018-12-26T11:08:21.035Z,97645.00
2018-12-26T11:13:35.260Z,97642.00
2018-12-26T11:18:41.327Z,97645.00
2018-12-26T11:23:45.103Z,97637.00
2018-12-26T11:29:06.319Z,97632.00
2018-12-26T11:34:10.108Z,97633.00
2018-12-26T11:39:13.215Z,97621.00
2018-12-26T11:44:16.648Z,97627.00
2018-12-26T11:49:24.856Z,97621.00
2018-12-26T11:54:29.800Z,97486.00
2018-12-26T11:59:34.584Z,97608.00
2018-12-26T12:04:40.551Z,97598.00
2018-12-26T12:09:44.005Z,97596.00
2018-12-26T12:14:57.084Z,97602.00
2018-12-26T12:20:01.502Z,97577.00
2018-12-26T12:25:05.249Z,97594.00
2018-12-26T12:30:18.900Z,97595.00
2018-12-26T12:35:22.515Z,97603.00
2018-12-26T12:40:26.169Z,97625.00
2018-12-26T12:45:30.599Z,97601.00
2018-12-26T12:50:34.491Z,97598.00
2018-12-26T12:55:38.792Z,97600.00
2018-12-26T13:00:43.987Z,97610.00
2018-12-26T13:05:47.518Z,97619.00
2018-12-26T13:10:50.470Z,97604.00
2018-12-26T13:16:02.315Z,97611.00
2018-12-26T13:21:09.307Z,97623.00
2018-12-26T13:26:14.291Z,97614.00
2018-12-26T13:31:18.995Z,97639.00
2018-12-26T13:36:22.679Z,97629.00
2018-12-26T13:41:25.823Z,97636.00
2018-12-26T13:46:33.686Z,97643.00
2018-12-26T13:51:38.423Z,97647.00
2018-12-26T13:56:44.263Z,97644.00
2018-12-26T14:01:48.227Z,97650.00
2018-12-26T14:06:52.555Z,97651.00
2018-12-26T14:11:56.016Z,97651.00
2018-12-26T14:16:58.768Z,97652.00
2018-12-26T14:22:05.957Z,97647.00
2018-12-26T14:27:18.047Z,97648.00
2018-12-26T14:32:24.641Z,97642.00
2018-12-26T14:37:31.145Z,97648.00
2018-12-26T14:42:34.319Z,97648.00
2018-12-26T14:47:41.610Z,97648.00
2018-12-26T14:52:49.359Z,97638.00
2018-12-26T14:57:55.204Z,97633.00
2018-12-26T15:02:58.328Z,97636.00
2018-12-26T15:08:19.667Z,97647.00
2018-12-26T15:13:23.369Z,97642.00
2018-12-26T15:18:44.579Z,97646.00
2018-12-26T15:23:48.179Z,97657.00
2018-12-26T15:28:50.919Z,97654.00
2018-12-26T15:33:53.800Z,97650.00
2018-12-26T15:38:57.069Z,97651.00
2018-12-26T15:44:03.048Z,97654.00
2018-12-26T15:49:06.220Z,97646.00
2018-12-26T15:54:22.412Z,97644.00
2018-12-26T15:59:26.228Z,97652.00
2018-12-26T16:04:30.091Z,97662.00
2018-12-26T16:09:35.039Z,97651.00
2018-12-26T16:14:39.781Z,97660.00
2018-12-26T16:19:42.555Z,97669.00
2018-12-26T16:24:56.232Z,97673.00
2018-12-26T16:30:17.656Z,97680.00
2018-12-26T16:35:24.119Z,97682.00
2018-12-26T16:40:28.686Z,97682.00
2018-12-26T16:45:40.429Z,97672.00
2018-12-26T16:50:44.127Z,97675.00
2018-12-26T16:55:51.356Z,97673.00
2018-12-26T17:01:03.503Z,97672.00
2018-12-26T17:06:25.005Z,97674.00
2018-12-26T17:11:31.215Z,97675.00
2018-12-26T17:16:45.051Z,97672.00
2018-12-26T17:21:49.494Z,97670.00
2018-12-26T17:26:54.168Z,97671.00
2018-12-26T17:31:58.520Z,97672.00
2018-12-26T17:37:04.821Z,97675.00
2018-12-26T17:42:08.177Z,97658.00
2018-12-26T17:47:10.943Z,97670.00
2018-12-26T17:52:15.612Z,97666.00
2018-12-26T17:57:29.479Z,97670.00
2018-12-26T18:02:39.824Z,97676.00
2018-12-26T18:07:44.614Z,97674.00
2018-12-26T18:12:48.536Z,97674.00
2018-12-26T18:17:52.095Z,97673.00
2018-12-26T18:22:56.043Z,97675.00
2018-12-26T18:27:58.825Z,97670.00
2018-12-26T18:33:03.185Z,97657.00
2018-12-26T18:38:06.865Z,97665.00
2018-12-26T18:43:10.493Z,97683.00
2018-12-26T18:48:14.135Z,97664.00
2018-12-26T18:53:17.000Z,97658.00
2018-12-26T18:58:24.679Z,97660.00
2018-12-26T19:03:29.348Z,97662.00
2018-12-26T19:08:34.486Z,97656.00
2018-12-26T19:13:38.563Z,97660.00
2018-12-26T19:18:51.779Z,97658.00
2018-12-26T19:23:56.400Z,97664.00
2018-12-26T19:28:59.975Z,97664.00
2018-12-26T19:34:02.812Z,97659.00
2018-12-26T19:39:06.747Z,97645.00
2018-12-26T19:44:10.238Z,97652.00
2018-12-26T19:49:12.962Z,97646.00
2018-12-26T19:54:18.692Z,97637.00
2018-12-26T19:59:21.475Z,97646.00
2018-12-26T20:04:26.836Z,97634.00
2018-12-26T20:09:31.331Z,97631.00
2018-12-26T20:14:34.148Z,97632.00
2018-12-26T20:19:38.069Z,97637.00
2018-12-26T20:24:50.399Z,97639.00
2018-12-26T20:29:55.628Z,97645.00
2018-12-26T20:34:59.265Z,97639.00
2018-12-26T20:40:03.629Z,97638.00
2018-12-26T20:45:08.575Z,97642.00
2018-12-26T20:50:29.541Z,97638.00
2018-12-26T20:55:33.181Z,97644.00
2018-12-26T21:00:37.642Z,97639.00
2018-12-26T21:05:41.346Z,97641.00
2018-12-26T21:10:44.800Z,97628.00
2018-12-26T21:16:06.119Z,97627.00
2018-12-26T21:21:09.227Z,97633.00
2018-12-26T21:26:14.374Z,97631.00
2018-12-26T21:31:20.325Z,97636.00
2018-12-26T21:36:24.757Z,97640.00
2018-12-26T21:41:29.883Z,97644.00
2018-12-26T21:46:36.518Z,97643.00
2018-12-26T21:51:39.446Z,97643.00
2018-12-26T21:56:43.740Z,97645.00
2018-12-26T22:01:49.606Z,97645.00
2018-12-26T22:06:54.337Z,97633.00
2018-12-26T22:11:59.224Z,97630.00
2018-12-26T22:17:05.192Z,97641.00
2018-12-26T22:22:09.032Z,97626.00
2018-12-26T22:27:11.943Z,97620.00
2018-12-26T22:32:14.933Z,97626.00
2018-12-26T22:37:18.731Z,97623.00
2018-12-26T22:42:25.761Z,97624.00
2018-12-26T22:47:48.286Z,97627.00
2018-12-26T22:52:51.625Z,97622.00
2018-12-26T22:57:54.905Z,97620.00
2018-12-26T23:02:58.502Z,97608.00
2018-12-26T23:08:02.659Z,97602.00
2018-12-26T23:13:05.496Z,97608.00
2018-12-26T23:18:11.843Z,97602.00
2018-12-26T23:23:14.704Z,97605.00
2018-12-26T23:28:26.467Z,97604.00
2018-12-26T23:33:29.627Z,97601.00
2018-12-26T23:38:37.000Z,97594.00
2018-12-26T23:43:40.563Z,97585.00
2018-12-26T23:48:45.768Z,97583.00
2018-12-26T23:53:51.542Z,97592.00
2018-12-26T23:58:55.977Z,97586.00
